createdAt,value
2018-04-25T00:01:07.864Z,17.90
2018-04-25T00:03:35.517Z,17.86
2018-04-25T00:06:03.184Z,17.88
2018-04-25T00:08:30.829Z,17.97
2018-04-25T00:10:58.421Z,17.91
2018-04-25T00:13:26.357Z,17.87
2018-04-25T00:15:53.969Z,17.84
2018-04-25T00:18:21.629Z,17.83
2018-04-25T00:20:49.252Z,17.94
2018-04-25T00:23:16.839Z,17.95
2018-04-25T00:25:44.467Z,18.00
2018-04-25T00:28:12.254Z,18.10
2018-04-25T00:30:39.863Z,18.20
2018-04-25T00:33:07.485Z,18.21
2018-04-25T00:35:35.183Z,18.21
2018-04-25T00:38:02.816Z,18.19
2018-04-25T00:40:30.439Z,18.23
2018-04-25T00:42:58.109Z,18.26
2018-04-25T00:45:25.791Z,18.34
2018-04-25T00:47:53.407Z,18.46
2018-04-25T00:50:21.167Z,18.52
2018-04-25T00:52:48.839Z,18.59
2018-04-25T00:55:16.452Z,18.56
2018-04-25T00:57:44.260Z,18.52
2018-04-25T01:00:11.961Z,18.52
2018-04-25T01:02:39.583Z,18.53
2018-04-25T01:05:07.284Z,18.54
2018-04-25T01:07:34.896Z,18.53
2018-04-25T01:10:02.565Z,18.49
2018-04-25T01:12:30.295Z,18.46
2018-04-25T01:14:58.064Z,18.48
2018-04-25T01:17:26.459Z,18.50
2018-04-25T01:19:54.119Z,18.57
2018-04-25T01:22:22.360Z,18.60
2018-04-25T01:25:04.877Z,18.65
2018-04-25T01:27:36.035Z,18.69
2018-04-25T01:30:03.712Z,18.75
2018-04-25T01:32:31.377Z,18.83
2018-04-25T01:34:59.064Z,18.91
2018-04-25T01:37:35.665Z,18.93
2018-04-25T01:40:04.172Z,19.00
2018-04-25T01:45:53.777Z,19.11
2018-04-25T01:51:31.780Z,19.14
2018-04-25T01:54:11.218Z,19.21
2018-04-25T01:56:50.616Z,19.24
2018-04-25T01:59:30.046Z,19.31
2018-04-25T02:01:57.128Z,19.32
2018-04-25T02:04:24.701Z,19.33
2018-04-25T02:06:52.376Z,19.36
2018-04-25T02:09:19.959Z,19.37
2018-04-25T02:11:47.573Z,19.45
2018-04-25T02:14:15.278Z,19.47
2018-04-25T02:16:43.617Z,19.50
2018-04-25T02:19:11.191Z,19.50
2018-04-25T02:21:38.880Z,19.44
2018-04-25T02:24:07.516Z,19.42
2018-04-25T02:26:35.104Z,19.42
2018-04-25T02:29:02.802Z,19.39
2018-04-25T02:31:30.431Z,19.33
2018-04-25T02:33:57.991Z,19.24
2018-04-25T02:36:25.604Z,19.17
2018-04-25T02:38:53.225Z,19.13
2018-04-25T02:41:20.789Z,19.05
2018-04-25T02:43:48.415Z,18.99
2018-04-25T02:46:16.011Z,18.91
2018-04-25T02:48:43.632Z,18.91
2018-04-25T02:51:11.405Z,19.01
2018-04-25T02:53:38.963Z,19.13
2018-04-25T02:56:06.536Z,19.23
2018-04-25T02:58:34.304Z,19.26
2018-04-25T03:01:01.872Z,19.34
2018-04-25T03:03:29.432Z,19.45
2018-04-25T03:05:59.784Z,19.53
2018-04-25T03:08:27.412Z,19.65
2018-04-25T03:10:54.975Z,19.70
2018-04-25T03:13:22.667Z,19.82
2018-04-25T03:15:52.564Z,19.84
2018-04-25T03:18:20.188Z,19.92
2018-04-25T03:20:47.883Z,19.93
2018-04-25T03:23:15.510Z,19.97
2018-04-25T03:25:43.075Z,19.96
2018-04-25T03:28:10.783Z,19.96
2018-04-25T03:30:38.411Z,19.98
2018-04-25T03:33:06.075Z,19.97
2018-04-25T03:35:33.767Z,19.94
2018-04-25T03:38:01.336Z,19.99
2018-04-25T03:40:28.897Z,20.03
2018-04-25T03:42:56.504Z,20.08
2018-04-25T03:45:24.165Z,20.14
2018-04-25T03:47:52.716Z,20.15
2018-04-25T03:50:20.427Z,20.24
2018-04-25T03:52:48.049Z,20.24
2018-04-25T03:55:15.678Z,20.27
2018-04-25T03:57:43.307Z,20.45
2018-04-25T04:00:10.968Z,20.60
2018-04-25T04:02:38.532Z,20.61
2018-04-25T04:05:06.239Z,20.57
2018-04-25T04:07:33.794Z,20.52
2018-04-25T04:10:01.353Z,20.47
2018-04-25T04:12:29.023Z,20.31
2018-04-25T04:14:56.658Z,20.24
2018-04-25T04:17:24.222Z,20.20
2018-04-25T04:19:52.606Z,20.21
2018-04-25T04:22:20.167Z,20.14
2018-04-25T04:24:47.730Z,20.13
2018-04-25T04:27:18.439Z,20.14
2018-04-25T04:29:45.997Z,20.17
2018-04-25T04:32:13.561Z,20.21
2018-04-25T04:34:41.199Z,20.25
2018-04-25T04:37:08.765Z,20.31
2018-04-25T04:39:36.338Z,20.22
2018-04-25T04:42:03.939Z,20.24
2018-04-25T04:44:31.556Z,20.24
2018-04-25T04:46:59.123Z,20.28
2018-04-25T04:49:26.891Z,20.34
2018-04-25T04:51:54.551Z,20.28
2018-04-25T04:54:22.126Z,20.21
2018-04-25T04:56:49.828Z,20.15
2018-04-25T04:59:17.450Z,20.22
2018-04-25T05:01:45.023Z,20.21
2018-04-25T05:04:12.633Z,20.30
2018-04-25T05:06:40.252Z,20.68
2018-04-25T05:09:07.817Z,21.41
2018-04-25T05:11:35.428Z,21.81
2018-04-25T05:14:03.087Z,21.80
2018-04-25T05:16:30.654Z,21.77
2018-04-25T05:18:58.420Z,21.81
2018-04-25T05:21:26.115Z,21.95
2018-04-25T05:23:53.692Z,21.95
2018-04-25T05:26:21.337Z,22.02
2018-04-25T05:28:49.049Z,22.08
2018-04-25T05:31:16.662Z,22.21
2018-04-25T05:33:44.336Z,22.38
2018-04-25T05:36:11.961Z,22.53
2018-04-25T05:38:39.550Z,22.69
2018-04-25T05:41:07.203Z,22.85
2018-04-25T05:43:34.921Z,23.07
2018-04-25T05:46:02.560Z,23.27
2018-04-25T05:48:30.458Z,23.45
2018-04-25T05:50:58.088Z,23.50
2018-04-25T05:53:25.719Z,24.18
2018-04-25T05:55:53.443Z,25.13
2018-04-25T05:58:21.007Z,25.58
2018-04-25T06:00:48.582Z,26.12
2018-04-25T06:03:16.228Z,25.99
2018-04-25T06:05:43.800Z,25.66
2018-04-25T06:08:11.429Z,26.00
2018-04-25T06:10:39.104Z,26.28
2018-04-25T06:13:06.729Z,26.07
2018-04-25T06:15:34.385Z,26.19
2018-04-25T06:18:01.999Z,25.95
2018-04-25T06:20:32.473Z,26.06
2018-04-25T06:23:00.657Z,26.24
2018-04-25T06:25:28.287Z,26.14
2018-04-25T06:27:55.937Z,26.22
2018-04-25T06:30:23.580Z,26.14
2018-04-25T06:32:51.282Z,26.20
2018-04-25T06:35:18.869Z,26.49
2018-04-25T06:37:46.503Z,26.65
2018-04-25T06:40:34.243Z,26.52
2018-04-25T06:43:02.098Z,26.40
2018-04-25T06:45:29.746Z,26.36
2018-04-25T06:47:57.372Z,26.77
2018-04-25T06:50:27.897Z,26.39
2018-04-25T06:52:56.677Z,26.71
2018-04-25T06:55:24.691Z,27.05
2018-04-25T06:57:52.333Z,27.20
2018-04-25T07:00:19.909Z,27.43
2018-04-25T07:02:47.529Z,27.78
2018-04-25T07:05:15.171Z,28.05
2018-04-25T07:07:42.806Z,28.08
2018-04-25T07:10:10.573Z,28.12
2018-04-25T07:12:38.147Z,27.75
2018-04-25T07:15:05.784Z,28.00
2018-04-25T07:17:33.472Z,28.01
2018-04-25T07:20:01.056Z,27.94
2018-04-25T07:22:29.614Z,27.94
2018-04-25T07:24:57.474Z,27.74
2018-04-25T07:27:25.076Z,27.77
2018-04-25T07:29:53.160Z,27.61
2018-04-25T07:32:20.773Z,27.26
2018-04-25T07:34:48.333Z,27.41
2018-04-25T07:37:15.908Z,27.76
2018-04-25T07:39:43.550Z,27.88
2018-04-25T07:42:11.896Z,27.58
2018-04-25T07:44:39.581Z,27.61
2018-04-25T07:47:07.292Z,27.32
2018-04-25T07:49:34.880Z,27.16
2018-04-25T07:52:02.468Z,27.37
2018-04-25T07:54:30.118Z,27.45
2018-04-25T07:56:57.731Z,27.72
2018-04-25T07:59:25.384Z,28.12
2018-04-25T08:01:53.092Z,28.24
2018-04-25T08:04:20.727Z,28.42
2018-04-25T08:06:48.331Z,28.30
2018-04-25T08:09:16.043Z,28.35
2018-04-25T08:11:43.679Z,28.18
2018-04-25T08:14:23.063Z,27.95
2018-04-25T08:17:02.473Z,27.82
2018-04-25T08:19:54.876Z,27.54
2018-04-25T08:22:22.527Z,27.95
2018-04-25T08:24:50.154Z,28.30
2018-04-25T08:27:18.317Z,28.50
2018-04-25T08:29:45.895Z,28.42
2018-04-25T08:32:13.471Z,28.40
2018-04-25T08:34:41.091Z,28.30
2018-04-25T08:37:08.757Z,28.36
2018-04-25T08:39:36.532Z,28.40
2018-04-25T08:42:04.155Z,28.58
2018-04-25T08:44:31.737Z,28.68
2018-04-25T08:46:59.311Z,28.86
2018-04-25T08:49:27.812Z,29.06
2018-04-25T08:51:55.403Z,29.12
2018-04-25T08:54:22.983Z,29.47
2018-04-25T08:56:50.714Z,29.44
2018-04-25T08:59:18.294Z,29.65
2018-04-25T09:01:45.957Z,29.83
2018-04-25T09:04:13.594Z,29.62
2018-04-25T09:06:41.417Z,29.43
2018-04-25T09:09:09.076Z,29.25
2018-04-25T09:11:36.739Z,29.42
2018-04-25T09:14:04.330Z,29.57
2018-04-25T09:16:31.900Z,29.65
2018-04-25T09:18:59.574Z,29.97
2018-04-25T09:21:27.156Z,30.03
2018-04-25T09:23:54.723Z,30.01
2018-04-25T09:26:22.468Z,29.98
2018-04-25T09:28:50.202Z,30.15
2018-04-25T09:31:17.844Z,30.02
2018-04-25T09:33:45.582Z,30.19
2018-04-25T09:36:13.200Z,30.02
2018-04-25T09:38:41.280Z,30.19
2018-04-25T09:41:08.926Z,30.32
2018-04-25T09:43:36.565Z,29.81
2018-04-25T09:46:04.235Z,29.86
2018-04-25T09:48:31.915Z,30.02
2018-04-25T09:50:59.529Z,29.83
2018-04-25T09:53:27.164Z,30.02
2018-04-25T09:55:54.944Z,30.06
2018-04-25T09:58:22.565Z,29.98
2018-04-25T10:00:55.944Z,30.03
2018-04-25T10:03:23.554Z,30.01
2018-04-25T10:05:51.142Z,30.11
2018-04-25T10:08:18.789Z,30.32
2018-04-25T10:10:46.377Z,30.27
2018-04-25T10:13:14.033Z,29.89
2018-04-25T10:15:41.647Z,29.85
2018-04-25T10:18:09.226Z,30.02
2018-04-25T10:20:36.796Z,29.82
2018-04-25T10:23:04.488Z,29.89
2018-04-25T10:25:32.636Z,29.94
2018-04-25T10:28:00.162Z,29.66
2018-04-25T10:30:27.926Z,29.70
2018-04-25T10:32:55.511Z,29.81
2018-04-25T10:35:23.110Z,30.01
2018-04-25T10:37:50.832Z,30.39
2018-04-25T10:40:18.484Z,30.68
2018-04-25T10:42:46.064Z,30.75
2018-04-25T10:45:13.759Z,30.55
2018-04-25T10:47:41.365Z,30.62
2018-04-25T10:50:09.004Z,30.76
2018-04-25T10:52:36.711Z,30.44
2018-04-25T10:55:05.180Z,30.55
2018-04-25T10:57:32.816Z,30.64
2018-04-25T11:00:00.444Z,30.43
2018-04-25T11:02:28.156Z,30.12
2018-04-25T11:04:55.731Z,30.26
2018-04-25T11:07:23.446Z,30.70
2018-04-25T11:09:51.044Z,30.59
2018-04-25T11:12:18.769Z,30.32
2018-04-25T11:14:46.462Z,30.61
2018-04-25T11:17:14.094Z,30.98
2018-04-25T11:19:41.676Z,30.96
2018-04-25T11:22:09.378Z,31.00
2018-04-25T11:24:36.959Z,30.84
2018-04-25T11:27:04.627Z,30.75
2018-04-25T11:29:32.304Z,30.95
2018-04-25T11:32:00.762Z,31.01
2018-04-25T11:34:28.336Z,30.28
2018-04-25T11:36:55.960Z,30.24
2018-04-25T11:39:23.543Z,30.25
2018-04-25T11:41:51.134Z,30.35
2018-04-25T11:44:18.752Z,30.19
2018-04-25T11:46:46.401Z,29.69
2018-04-25T11:49:14.067Z,29.48
2018-04-25T11:51:41.786Z,29.37
2018-04-25T11:54:09.367Z,29.37
2018-04-25T11:56:36.963Z,29.21
2018-04-25T11:59:04.672Z,29.20
2018-04-25T12:01:32.273Z,28.99
2018-04-25T12:03:59.868Z,29.07
2018-04-25T12:06:27.598Z,28.91
2018-04-25T12:08:55.191Z,28.65
2018-04-25T12:11:22.797Z,28.30
2018-04-25T12:13:50.456Z,27.51
2018-04-25T12:16:18.151Z,27.09
2018-04-25T12:18:45.748Z,26.44
2018-04-25T12:21:13.422Z,26.02
2018-04-25T12:23:41.011Z,25.69
2018-04-25T12:26:08.674Z,25.58
2018-04-25T12:28:36.324Z,25.45
2018-04-25T12:31:03.932Z,25.34
2018-04-25T12:33:31.860Z,25.25
2018-04-25T12:35:59.536Z,25.15
2018-04-25T12:38:27.163Z,25.00
2018-04-25T12:40:54.744Z,24.81
2018-04-25T12:43:22.697Z,24.64
2018-04-25T12:45:52.304Z,24.57
2018-04-25T12:48:19.921Z,24.32
2018-04-25T12:50:47.597Z,24.34
2018-04-25T12:53:15.164Z,24.33
2018-04-25T12:55:42.756Z,24.24
2018-04-25T12:58:12.950Z,24.12
2018-04-25T13:00:40.601Z,24.03
2018-04-25T13:03:08.286Z,24.05
2018-04-25T13:05:35.928Z,24.03
2018-04-25T13:08:03.568Z,24.01
2018-04-25T13:10:31.212Z,23.98
2018-04-25T13:12:58.925Z,24.03
2018-04-25T13:15:26.524Z,24.07
2018-04-25T13:17:54.150Z,24.16
2018-04-25T13:20:21.945Z,24.24
2018-04-25T13:22:49.520Z,24.32
2018-04-25T13:25:17.092Z,24.41
2018-04-25T13:27:44.725Z,24.51
2018-04-25T13:30:12.301Z,24.58
2018-04-25T13:32:39.888Z,24.65
2018-04-25T13:35:07.660Z,24.73
2018-04-25T13:37:35.308Z,24.82
2018-04-25T13:40:02.960Z,24.99
2018-04-25T13:42:30.696Z,25.14
2018-04-25T13:44:58.324Z,25.30
2018-04-25T13:47:26.760Z,25.47
2018-04-25T13:49:54.445Z,25.64
2018-04-25T13:52:22.084Z,25.81
2018-04-25T13:54:49.652Z,25.96
2018-04-25T13:57:17.280Z,26.04
2018-04-25T13:59:44.881Z,26.00
2018-04-25T14:02:12.685Z,26.00
2018-04-25T14:04:40.315Z,26.05
2018-04-25T14:07:07.924Z,26.05
2018-04-25T14:09:35.520Z,26.07
2018-04-25T14:12:03.172Z,26.15
2018-04-25T14:14:30.782Z,26.21
2018-04-25T14:16:58.660Z,26.25
2018-04-25T14:19:26.295Z,26.25
2018-04-25T14:21:53.878Z,26.25
2018-04-25T14:24:21.524Z,26.30
2018-04-25T14:26:49.299Z,26.31
2018-04-25T14:29:16.884Z,26.23
2018-04-25T14:31:44.532Z,26.24
2018-04-25T14:34:12.156Z,26.33
2018-04-25T14:36:39.937Z,26.35
2018-04-25T14:39:07.549Z,26.37
2018-04-25T14:41:36.024Z,26.35
2018-04-25T14:44:03.746Z,26.37
2018-04-25T14:46:31.417Z,26.41
2018-04-25T14:48:59.084Z,26.45
2018-04-25T14:51:26.696Z,26.51
2018-04-25T14:53:54.349Z,26.60
2018-04-25T14:56:21.983Z,26.65
2018-04-25T14:58:49.591Z,26.72
2018-04-25T15:01:17.240Z,26.73
2018-04-25T15:03:44.856Z,26.65
2018-04-25T15:06:13.074Z,26.67
2018-04-25T15:08:40.660Z,26.70
2018-04-25T15:11:08.455Z,26.74
2018-04-25T15:13:36.039Z,26.77
2018-04-25T15:16:03.739Z,26.80
2018-04-25T15:18:32.226Z,26.83
2018-04-25T15:20:59.887Z,26.87
2018-04-25T15:23:27.572Z,26.87
2018-04-25T15:25:55.264Z,26.87
2018-04-25T15:28:22.853Z,26.81
2018-04-25T15:30:50.434Z,26.79
2018-04-25T15:33:18.069Z,26.75
2018-04-25T15:35:45.720Z,26.70
2018-04-25T15:38:13.357Z,26.73
2018-04-25T15:40:41.023Z,26.66
2018-04-25T15:43:08.703Z,26.57
2018-04-25T15:45:36.285Z,26.55
2018-04-25T15:48:04.673Z,26.51
2018-04-25T15:50:32.978Z,26.49
2018-04-25T15:53:00.607Z,26.48
2018-04-25T15:55:28.244Z,26.43
2018-04-25T15:57:55.833Z,26.42
2018-04-25T16:00:23.412Z,26.39
2018-04-25T16:02:51.144Z,26.36
2018-04-25T16:05:18.831Z,26.32
2018-04-25T16:07:46.416Z,26.28
2018-04-25T16:10:14.086Z,26.22
2018-04-25T16:12:41.663Z,26.13
2018-04-25T16:15:09.292Z,26.06
2018-04-25T16:17:36.959Z,25.98
2018-04-25T16:20:04.560Z,25.80
2018-04-25T16:22:32.168Z,25.63
2018-04-25T16:24:59.800Z,25.50
2018-04-25T16:27:27.504Z,25.35
2018-04-25T16:29:55.078Z,25.25
2018-04-25T16:32:22.833Z,25.14
2018-04-25T16:34:50.407Z,25.03
2018-04-25T16:37:18.000Z,24.89
2018-04-25T16:39:45.932Z,24.78
2018-04-25T16:42:13.540Z,24.65
2018-04-25T16:44:41.181Z,24.51
2018-04-25T16:47:08.820Z,24.39
2018-04-25T16:49:36.408Z,24.27
2018-04-25T16:52:03.995Z,24.13
2018-04-25T16:54:31.627Z,24.04
2018-04-25T16:56:59.205Z,23.95
2018-04-25T16:59:26.798Z,23.86
2018-04-25T17:01:54.435Z,23.77
2018-04-25T17:04:22.075Z,23.69
2018-04-25T17:06:49.691Z,23.59
2018-04-25T17:09:17.329Z,23.50
2018-04-25T17:11:44.993Z,23.44
2018-04-25T17:14:12.714Z,23.36
2018-04-25T17:16:40.429Z,23.27
2018-04-25T17:19:08.004Z,23.18
2018-04-25T17:21:35.647Z,23.09
2018-04-25T17:24:03.332Z,22.98
2018-04-25T17:26:30.931Z,22.89
2018-04-25T17:28:58.595Z,22.78
2018-04-25T17:31:26.289Z,22.71
2018-04-25T17:33:53.867Z,22.60
2018-04-25T17:36:21.475Z,22.53
2018-04-25T17:38:50.185Z,22.45
2018-04-25T17:41:17.872Z,22.37
2018-04-25T17:43:45.655Z,22.30
2018-04-25T17:46:14.132Z,22.24
2018-04-25T17:48:41.893Z,22.17
2018-04-25T17:51:09.497Z,22.11
2018-04-25T17:53:37.250Z,22.05
2018-04-25T17:56:04.875Z,21.96
2018-04-25T17:58:32.457Z,21.89
2018-04-25T18:01:00.076Z,21.80
2018-04-25T18:03:27.791Z,21.77
2018-04-25T18:05:55.365Z,21.64
2018-04-25T18:08:23.048Z,21.61
2018-04-25T18:10:50.697Z,21.54
2018-04-25T18:13:18.339Z,21.42
2018-04-25T18:15:46.028Z,21.30
2018-04-25T18:18:14.527Z,21.22
2018-04-25T18:20:42.138Z,21.13
2018-04-25T18:23:10.694Z,21.02
2018-04-25T18:25:38.292Z,20.94
2018-04-25T18:28:05.967Z,20.92
2018-04-25T18:30:33.683Z,20.89
2018-04-25T18:33:01.277Z,20.85
2018-04-25T18:35:28.870Z,20.77
2018-04-25T18:37:56.496Z,20.72
2018-04-25T18:40:24.078Z,20.62
2018-04-25T18:42:51.814Z,20.52
2018-04-25T18:45:19.445Z,20.42
2018-04-25T18:47:47.033Z,20.37
2018-04-25T18:50:14.644Z,20.25
2018-04-25T18:52:42.327Z,20.15
2018-04-25T18:55:09.921Z,20.07
2018-04-25T18:57:37.606Z,20.11
2018-04-25T19:00:05.332Z,20.16
2018-04-25T19:02:32.917Z,20.23
2018-04-25T19:05:00.508Z,20.32
2018-04-25T19:07:28.188Z,20.41
2018-04-25T19:09:55.910Z,20.48
2018-04-25T19:12:24.077Z,20.52
2018-04-25T19:14:51.769Z,20.55
2018-04-25T19:17:22.151Z,20.58
2018-04-25T19:19:49.704Z,20.58
2018-04-25T19:22:17.328Z,20.64
2018-04-25T19:24:44.912Z,20.77
2018-04-25T19:27:12.811Z,20.83
2018-04-25T19:29:41.228Z,20.86
2018-04-25T19:32:08.811Z,20.91
2018-04-25T19:34:36.532Z,20.95
2018-04-25T19:37:04.267Z,20.97
2018-04-25T19:39:31.860Z,20.99
2018-04-25T19:41:59.452Z,21.01
2018-04-25T19:44:27.393Z,21.01
2018-04-25T19:46:55.017Z,21.01
2018-04-25T19:49:22.600Z,21.00
2018-04-25T19:51:50.278Z,20.98
2018-04-25T19:54:17.920Z,20.97
2018-04-25T19:56:45.554Z,20.95
2018-04-25T19:59:13.298Z,20.93
2018-04-25T20:01:40.963Z,20.92
2018-04-25T20:04:08.533Z,20.91
2018-04-25T20:06:36.178Z,20.89
2018-04-25T20:09:03.863Z,20.86
2018-04-25T20:11:31.452Z,20.84
2018-04-25T20:13:59.153Z,20.81
2018-04-25T20:16:26.728Z,20.78
2018-04-25T20:18:54.316Z,20.76
2018-04-25T20:21:21.933Z,20.76
2018-04-25T20:23:49.516Z,20.73
2018-04-25T20:26:17.095Z,20.71
2018-04-25T20:28:44.720Z,20.69
2018-04-25T20:31:12.296Z,20.66
2018-04-25T20:33:39.884Z,20.63
2018-04-25T20:36:07.499Z,20.62
2018-04-25T20:38:36.041Z,20.59
2018-04-25T20:41:03.619Z,20.57
2018-04-25T20:43:31.248Z,20.54
2018-04-25T20:45:59.220Z,20.52
2018-04-25T20:48:26.833Z,20.49
2018-04-25T20:50:54.517Z,20.47
2018-04-25T20:53:22.175Z,20.46
2018-04-25T20:55:49.760Z,20.44
2018-04-25T20:58:17.376Z,20.43
2018-04-25T21:00:44.979Z,20.44
2018-04-25T21:03:12.652Z,20.46
2018-04-25T21:05:40.281Z,20.49
2018-04-25T21:08:07.934Z,20.50
2018-04-25T21:10:35.507Z,20.53
2018-04-25T21:13:03.229Z,20.56
2018-04-25T21:15:30.823Z,20.58
2018-04-25T21:17:59.307Z,20.59
2018-04-25T21:20:27.099Z,20.61
2018-04-25T21:22:54.740Z,20.60
2018-04-25T21:25:22.368Z,20.57
2018-04-25T21:27:50.050Z,20.54
2018-04-25T21:30:17.634Z,20.45
2018-04-25T21:32:45.213Z,20.27
2018-04-25T21:35:13.027Z,20.19
2018-04-25T21:37:40.606Z,20.13
2018-04-25T21:40:08.179Z,20.08
2018-04-25T21:42:35.901Z,20.01
2018-04-25T21:45:03.564Z,19.95
2018-04-25T21:47:31.325Z,19.92
2018-04-25T21:49:58.959Z,19.91
2018-04-25T21:52:26.552Z,19.89
2018-04-25T21:54:54.141Z,19.90
2018-04-25T21:57:21.848Z,19.89
2018-04-25T21:59:49.430Z,19.89
2018-04-25T22:02:16.996Z,19.88
2018-04-25T22:04:44.599Z,19.88
2018-04-25T22:07:12.235Z,19.83
2018-04-25T22:09:39.867Z,19.77
2018-04-25T22:12:07.485Z,19.69
2018-04-25T22:14:35.125Z,19.65
2018-04-25T22:17:02.735Z,19.63
2018-04-25T22:19:30.356Z,19.61
2018-04-25T22:21:57.923Z,19.59
2018-04-25T22:24:25.548Z,19.57
2018-04-25T22:26:53.225Z,19.56
2018-04-25T22:29:20.813Z,19.49
2018-04-25T22:31:48.381Z,19.46
2018-04-25T22:34:16.044Z,19.32
2018-04-25T22:36:43.643Z,19.17
2018-04-25T22:39:11.282Z,19.07
2018-04-25T22:41:39.010Z,19.01
2018-04-25T22:44:06.661Z,18.99
2018-04-25T22:46:34.314Z,18.97
2018-04-25T22:49:02.153Z,18.89
2018-04-25T22:51:29.727Z,18.85
2018-04-25T22:53:57.361Z,18.81
2018-04-25T22:56:25.057Z,18.75
2018-04-25T22:58:53.499Z,18.67
2018-04-25T23:01:21.098Z,18.59
2018-04-25T23:03:48.724Z,18.49
2018-04-25T23:06:17.185Z,18.44
2018-04-25T23:09:02.423Z,18.39
2018-04-25T23:11:29.997Z,18.28
2018-04-25T23:13:57.551Z,18.20
2018-04-25T23:16:25.300Z,18.15
2018-04-25T23:18:52.888Z,18.10
2018-04-25T23:21:20.458Z,18.08
2018-04-25T23:23:48.168Z,18.08
2018-04-25T23:26:15.784Z,18.06
2018-04-25T23:28:43.353Z,18.04
2018-04-25T23:31:10.965Z,18.01
2018-04-25T23:33:38.568Z,17.97
2018-04-25T23:36:06.165Z,17.93
2018-04-25T23:38:33.875Z,17.91
2018-04-25T23:41:01.451Z,17.85
2018-04-25T23:43:29.031Z,17.77
2018-04-25T23:45:56.654Z,17.74
2018-04-25T23:48:24.234Z,17.71
2018-04-25T23:50:51.850Z,17.65
2018-04-25T23:53:19.505Z,17.63
2018-04-25T23:55:47.093Z,17.57
2018-04-25T23:58:14.742Z,17.54
